Ana Sayfa
METAR-TAF:

METAR-TAF

Havaalanları :

Nevşehir Kapadokya Havalimanı

Nevşehir, Türkiye

Enlem: 38-46-12N, Boylam: 034-32-30E, yükseklik: 945 m

Güncel hava durumu gözlemi

Rapor saat 11:20 UTC de 44 dakika önce yapıldı.
Rüzgar batı/kuzeybatıdan 9 kt
Sıcaklık 15°C
Nem 36%
Basınç 1029 hPa
Görüş mesafesi 10 km veya daha fazla
4000 ft yükseklikte az bulutlu
10000 ft yükseklikte parçalı çok bulutlu

METAR: LTAZ 241120Z 30009KT 9999 FEW040 BKN100 15/M00 Q1029 RMK RWY29 30009KT

Saat: 15:04 (12:04 UTC)

Tahmin

Rapor saat 10:40 UTC de 1 saat ve 24 dakika önce yapıldı.
Ayın 24'si saat 12 UTC'den ayın 25'si saat 12 UTC'ye kadar geçerli Tahmin
Rüzgar kuzey/kuzeybatıdan 12 kt
Görüş mesafesi 10 km veya daha fazla
4000 ft yükseklikte az bulutlu
10000 ft yükseklikte parçalı çok bulutlu
Dönüşüyor
ayın 24'si saat 17 UTC'den ayın 24'si saat 20 UTC'ye kadar
Rüzgar doğu/güneydoğudan 8 kt

TAF: LTAZ 241040Z 2412/2512 34012KT 9999 FEW040 BKN100 BECMG 2417/2420 11008KT

4.000'den fazla havaalanı için hava durumu gözlemleri ve tahminleri (METAR ve TAF raporları).

Kullanılabilir istasyonlar harita üzerinde sarı ve kırmızı noktalarla gösterilir.

İstasyonun adını görmek için fareyi noktanın üzerinde gezdirin.

Sonrasında hava gözlem ve tahminlerini görmek için tıklayın.

Haritayı değiştirmek için: yaklaştırmak için siyah artı işaretli yeşil düğmeye ve uzaklaştırmak için de eksi işaretli düğmeye hızla tıklayın; bitişik haritalar için yeşil okları kullanın.


METAR-TAF: